Abinsk, Russia
Current Conditions -  °F | °C
As of 6:00 AM on Friday 28 Nov 2014 (Local Time) from URKA Reporting Station
Overcast Overcast  
Wind Chill: 25°   Ceiling: 4000
Heat Index: 30°   Visibility: 6mi
Dew Point: 28°   Wind: 4mph
Humidity: 93%   Direction: 140°SE
Pressure: 30.27"   Gusts: NA
Location:  44.87°N, 38.16°E
Report Text: URKA 280300Z 14002MPS 9999 BKN040 OVC110 M01/M02 Q1025 RMKQFE765/1020
Loading
Personal Weather Stations






























Interactive Weather Map New forecast layout! Learn more

10-Day Weather Forecast

Advertisements
Track Severe Weather on mobile